Stations météo

Publicité
Mt. St.Vincent, France (7382): Température de l'air & dewpoint: 06.12.2018 19:00:00 - 12.12.2018 19:00:00 (CET)Mt. St.Vincent, France (7382): Vitesse du vent & gusts: 06.12.2018 19:00:00 - 12.12.2018 19:00:00 (CET)Mt. St.Vincent, France (7382): Direction du vent: 06.12.2018 19:00:00 - 12.12.2018 19:00:00 (CET)Mt. St.Vincent, France (7382): Ensoleillement: 06.12.2018 19:00:00 - 12.12.2018 19:00:00 (CET)Mt. St.Vincent, France (7382): Quantités de précipitations: 06.12.2018 19:00:00 - 12.12.2018 19:00:00 (CET)
Date & Time tt [°C] td [°C] ff [km/h] ff [knt] fx [km/h] fx [knt] dd sd [min] rr [mm]
12.12.2018 19:00:00 - - - - - - - - -
12.12.2018 18:00:00 -2,7 -3,0 22 12 34 18 ENE 0 0,0
12.12.2018 17:00:00 -3,0 -3,3 18 10 31 17 ENE 24 0,0
12.12.2018 16:00:00 -3,0 -3,3 26 14 34 18 ENE 60 0,0
12.12.2018 15:00:00 -3,0 -3,3 18 10 26 14 ENE 60 0,0
12.12.2018 14:00:00 -3,3 -3,6 16 9 24 13 ENE 24 0,0
12.12.2018 13:00:00 -3,5 -3,8 16 9 26 14 ENE 0 -
12.12.2018 12:00:00 -3,6 -3,9 13 7 28 15 ENE 0 0,0
12.12.2018 11:00:00 -3,4 -3,7 22 12 29 16 ENE 24 0,0
12.12.2018 10:00:00 -3,5 -3,8 21 11 29 16 ENE 0 0,0
12.12.2018 09:00:00 -3,4 -3,7 15 8 26 14 NE 0 0,0
12.12.2018 08:00:00 -3,2 -3,6 21 11 34 18 ENE 0 0,0
12.12.2018 07:00:00 -2,7 -4,1 22 12 29 16 ENE 0 -
12.12.2018 06:00:00 -1,9 -4,4 13 7 22 12 NE 0 0,0
12.12.2018 05:00:00 -2,1 -4,1 11 6 21 11 NE 0 0,0
12.12.2018 04:00:00 -1,8 -3,8 13 7 18 10 ENE 0 0,0
12.12.2018 03:00:00 -1,7 -3,4 13 7 22 12 ENE 0 0,0
12.12.2018 02:00:00 -1,3 -2,9 15 8 24 13 NE 0 0,0
12.12.2018 01:00:00 -1,2 -1,6 18 10 29 16 NE 0 -
12.12.2018 00:00:00 -0,7 -1,3 22 12 29 16 NE 0 0,0
11.12.2018 23:00:00 -0,6 -2,0 16 9 28 15 ENE 0 0,0
11.12.2018 22:00:00 -0,1 -2,3 18 10 28 15 ENE 0 0,0
11.12.2018 21:00:00 0,4 -2,3 21 11 29 16 ENE 0 0,0
11.12.2018 20:00:00 0,6 -2,3 18 10 28 15 ENE 0 0,0
11.12.2018 19:00:00 1,0 -1,6 16 9 22 12 ENE 0 -
11.12.2018 18:00:00 1,2 -0,7 16 9 24 13 E 0 0,0
11.12.2018 17:00:00 2,4 0,0 13 7 22 12 ENE 12 0,0
11.12.2018 16:00:00 2,6 0,7 11 6 24 13 ENE 30 0,0
11.12.2018 15:00:00 4,8 0,7 5 3 18 10 NNE 48 0,0
11.12.2018 14:00:00 3,6 1,3 8 4 18 10 NNE 12 0,0
11.12.2018 13:00:00 3,5 2,0 9 5 22 12 ENE 12 -
11.12.2018 12:00:00 4,4 2,6 13 7 22 12 ENE 24 0,0
11.12.2018 11:00:00 3,0 2,4 9 5 18 10 NE 18 0,0
11.12.2018 10:00:00 2,5 1,9 8 4 21 11 NE 0 0,0
11.12.2018 09:00:00 2,7 1,1 8 4 18 10 NNE 0 0,0
11.12.2018 08:00:00 2,3 1,9 9 5 18 10 N 0 0,0
11.12.2018 07:00:00 2,7 1,5 9 5 22 12 NNE 0 -
11.12.2018 06:00:00 2,2 2,1 8 4 18 10 NNW 0 0,0
11.12.2018 05:00:00 2,4 2,3 5 3 18 10 N 0 0,0
11.12.2018 04:00:00 2,2 2,1 8 4 16 9 NNW 0 0,0
11.12.2018 03:00:00 2,0 1,9 8 4 16 9 WNW 0 0,0
11.12.2018 02:00:00 2,4 2,3 8 4 16 9 W 0 0,0
11.12.2018 01:00:00 2,2 2,1 9 5 22 12 W 0 -
11.12.2018 00:00:00 2,5 2,4 15 8 28 15 W 0 0,0
10.12.2018 23:00:00 2,4 2,3 18 10 34 18 WNW 0 0,0
10.12.2018 22:00:00 2,5 2,2 24 13 37 20 WNW 0 0,0
10.12.2018 21:00:00 2,9 2,5 22 12 34 18 WNW 0 0,0
10.12.2018 20:00:00 2,8 2,4 21 11 31 17 WNW 0 0,0
10.12.2018 19:00:00 3,0 2,7 22 12 34 18 WNW 0 -
10.12.2018 18:00:00 3,2 2,9 26 14 41 22 WNW 0 0,0
10.12.2018 17:00:00 4,2 3,6 24 13 42 23 WNW 12 0,0
10.12.2018 16:00:00 4,6 4,5 22 12 41 22 WNW 0 0,0
10.12.2018 15:00:00 4,9 4,2 29 16 46 25 W 24 0,0
10.12.2018 14:00:00 5,3 4,9 24 13 46 25 WNW 6 0,2
10.12.2018 13:00:00 5,0 5,0 18 10 37 20 WNW 0 -
10.12.2018 12:00:00 4,6 4,6 24 13 35 19 WNW 0 0,0
10.12.2018 11:00:00 4,5 4,5 24 13 41 22 WNW 0 0,2
10.12.2018 10:00:00 4,3 4,3 21 11 41 22 WNW 0 0,0
10.12.2018 09:00:00 4,1 4,1 26 14 50 27 WNW 0 0,0
10.12.2018 08:00:00 4,3 4,3 29 16 50 27 WNW 0 0,0
10.12.2018 07:00:00 4,4 4,4 35 19 54 29 WNW 0 -
10.12.2018 06:00:00 4,3 4,2 34 18 55 30 WNW 0 0,0
10.12.2018 05:00:00 4,5 4,4 24 13 55 30 WNW 0 0,0
10.12.2018 04:00:00 4,4 4,3 26 14 52 28 WNW 0 0,0
10.12.2018 03:00:00 4,0 3,7 18 10 39 21 WNW 0 0,0
10.12.2018 02:00:00 4,4 4,3 21 11 44 24 WNW 0 0,0
10.12.2018 01:00:00 4,8 4,7 29 16 57 31 WNW 0 -
10.12.2018 00:00:00 5,5 5,4 34 18 63 34 WNW 0 0,0
09.12.2018 23:00:00 5,6 5,5 41 22 68 37 WNW 0 0,0
09.12.2018 22:00:00 5,7 5,6 35 19 70 38 WNW 0 0,0
09.12.2018 21:00:00 5,9 5,6 44 24 76 41 WNW 0 0,2
09.12.2018 20:00:00 5,9 5,5 41 22 87 47 WNW 0 0,0
09.12.2018 19:00:00 6,1 5,4 55 30 83 45 W 0 -
09.12.2018 18:00:00 5,9 5,3 50 27 80 43 W 0 0,0
09.12.2018 17:00:00 5,8 5,2 52 28 80 43 W 0 0,0
09.12.2018 16:00:00 5,8 5,1 48 26 83 45 W 0 0,6
09.12.2018 15:00:00 6,3 4,6 48 26 80 43 W 0 0,0
09.12.2018 14:00:00 6,3 4,1 50 27 80 43 W 0 0,2
09.12.2018 13:00:00 6,5 3,6 48 26 78 42 W 0 -
09.12.2018 12:00:00 6,4 3,9 46 25 76 41 W 12 0,0
09.12.2018 11:00:00 6,0 4,0 48 26 80 43 W 36 0,0
09.12.2018 10:00:00 5,5 3,8 46 25 78 42 W 30 0,0
09.12.2018 09:00:00 5,3 4,1 44 24 89 48 W 0 0,2
09.12.2018 08:00:00 5,7 5,0 52 28 81 44 W 0 0,6
09.12.2018 07:00:00 6,4 5,5 42 23 93 50 W 0 -
09.12.2018 06:00:00 5,2 4,5 70 38 111 60 W 0 2,0
09.12.2018 05:00:00 7,4 5,2 70 38 111 60 W 0 0,0
09.12.2018 04:00:00 7,5 5,6 52 28 94 51 W 0 0,0
09.12.2018 03:00:00 7,8 7,7 55 30 100 54 W 0 1,0
09.12.2018 02:00:00 8,1 7,7 55 30 93 50 W 0 0,0
09.12.2018 01:00:00 8,3 7,2 67 36 100 54 W 0 -
09.12.2018 00:00:00 7,6 7,5 59 32 89 48 WSW 0 0,2
08.12.2018 23:00:00 7,2 6,9 52 28 83 45 WSW 0 0,2
08.12.2018 22:00:00 6,7 6,7 48 26 72 39 WSW 0 0,0
08.12.2018 21:00:00 6,0 6,0 44 24 67 36 WSW 0 0,4
08.12.2018 20:00:00 6,0 6,0 39 21 65 35 SW 0 0,8
08.12.2018 19:00:00 6,0 6,0 35 19 55 30 SW 0 -
08.12.2018 18:00:00 6,0 5,9 37 20 57 31 WSW 0 0,6
08.12.2018 17:00:00 5,9 5,8 34 18 67 36 WSW 0 0,2
08.12.2018 16:00:00 6,3 5,6 42 23 65 35 WSW 0 0,0
08.12.2018 15:00:00 6,0 5,9 46 25 65 35 W 0 0,2
08.12.2018 14:00:00 5,7 5,6 44 24 68 37 W 0 0,0
08.12.2018 13:00:00 5,8 5,5 46 25 72 39 W 6 -
08.12.2018 12:00:00 5,1 4,8 42 23 76 41 W 0 0,8
08.12.2018 11:00:00 5,2 4,2 48 26 72 39 W 6 0,2
08.12.2018 10:00:00 4,9 3,7 46 25 68 37 W 0 0,0
08.12.2018 09:00:00 4,5 3,5 44 24 65 35 W 0 0,0
08.12.2018 08:00:00 4,2 3,3 42 23 55 30 WSW 0 0,0
08.12.2018 07:00:00 4,1 3,2 39 21 59 32 W 0 -
08.12.2018 06:00:00 4,1 3,2 44 24 67 36 W 0 0,0
08.12.2018 05:00:00 3,7 3,1 42 23 72 39 W 0 0,2
08.12.2018 04:00:00 3,7 2,5 44 24 61 33 W 0 0,0
08.12.2018 03:00:00 3,3 2,6 44 24 59 32 W 0 0,0
08.12.2018 02:00:00 3,1 2,7 41 22 59 32 W 0 0,0
08.12.2018 01:00:00 2,8 2,7 41 22 57 31 W 0 -
08.12.2018 00:00:00 3,1 2,8 35 19 57 31 W 0 0,0
07.12.2018 23:00:00 3,7 3,0 39 21 67 36 W 0 0,0
07.12.2018 22:00:00 4,2 3,0 41 22 72 39 W 0 0,0
07.12.2018 21:00:00 5,1 4,2 44 24 70 38 W 0 0,2
07.12.2018 20:00:00 4,8 4,2 48 26 98 53 W 0 1,0
07.12.2018 19:00:00 7,4 6,2 59 32 91 49 W 0 -
07.12.2018 18:00:00 7,6 6,8 48 26 74 40 WSW 0 0,8
07.12.2018 17:00:00 7,9 7,0 34 18 55 30 SW 0 0,4
07.12.2018 16:00:00 8,3 6,6 35 19 55 30 SW 0 0,0
07.12.2018 15:00:00 9,0 6,3 29 16 54 29 SW 6 0,0
07.12.2018 14:00:00 10,1 6,8 35 19 55 30 WSW 12 0,0
07.12.2018 13:00:00 8,1 6,7 39 21 57 31 SW 0 -
07.12.2018 12:00:00 7,9 7,3 35 19 50 27 W 0 0,0
07.12.2018 11:00:00 8,3 8,0 24 13 39 21 WSW 0 0,0
07.12.2018 10:00:00 7,5 7,2 26 14 42 23 WSW 0 0,0
07.12.2018 09:00:00 7,3 6,7 29 16 42 23 WSW 0 0,0
07.12.2018 08:00:00 7,1 6,8 26 14 41 22 WSW 0 0,0
07.12.2018 07:00:00 7,2 6,9 26 14 44 24 SW 0 -
07.12.2018 06:00:00 7,1 7,0 29 16 44 24 W 0 0,0
07.12.2018 05:00:00 7,4 7,3 31 17 48 26 W 0 0,0
07.12.2018 04:00:00 7,4 7,4 39 21 52 28 W 0 0,0
07.12.2018 03:00:00 7,5 7,5 35 19 57 31 W 0 0,0
07.12.2018 02:00:00 7,9 7,9 37 20 54 29 W 0 0,0
07.12.2018 01:00:00 8,2 8,2 34 18 52 28 W 0 -
07.12.2018 00:00:00 8,5 8,5 31 17 54 29 W 0 0,2
06.12.2018 23:00:00 8,6 8,6 37 20 55 30 W 0 0,0
06.12.2018 22:00:00 8,7 8,7 37 20 52 28 W 0 0,0
06.12.2018 21:00:00 8,9 8,9 37 20 50 27 W 0 0,0
06.12.2018 20:00:00 9,2 9,2 31 17 52 28 W 0 0,2
06.12.2018 19:00:00 9,3 9,3 31 17 48 26 W 0 -

tt = Température de l'air
td = dewpoint
ff = Vitesse du vent
fx = gusts
dd = Direction du vent
sd = Ensoleillement
rr = Quantités de précipitations

stations d'obs. à proximité